Time;durP1;ratioP1;P1;durP2;ratioP2;P2;SDS_P1;SDS_P2;PMS_P1;PMS_P2;Temp;Humidity;BMP_temperature;BMP_pressure;BME280_temperature;BME280_humidity;BME280_pressure;Samples;Min_cycle;Max_cycle;Signal;HPM_P1;HPM_P2
2024/01/14 00:01:54;;;;;;;12.32;4.95;;;;;;;;;;6089760;23;20462;-80
2024/01/14 00:04:21;;;;;;;11.48;4.68;;;;;;;;;;6090151;23;20042;-80
2024/01/14 00:06:55;;;;;;;7.50;3.88;;;;;;;;;;6091232;23;20090;-79
2024/01/14 00:09:22;;;;;;;8.00;4.00;;;;;;;;;;6090111;23;20022;-80
2024/01/14 00:11:49;;;;;;;8.35;4.13;;;;;;;;;;6091933;23;20026;-80
2024/01/14 00:14:30;;;;;;;8.35;3.75;;;;;;;;;;6088878;23;20031;-80
2024/01/14 00:17:04;;;;;;;6.53;3.67;;;;;;;;;;6087549;23;20026;-80
2024/01/14 00:19:39;;;;;;;7.90;3.50;;;;;;;;;;6089899;23;20026;-80
2024/01/14 00:22:06;;;;;;;10.32;3.92;;;;;;;;;;6089271;23;20033;-80
2024/01/14 00:24:33;;;;;;;10.13;3.63;;;;;;;;;;6089496;23;20026;-79
2024/01/14 00:27:08;;;;;;;10.32;3.78;;;;;;;;;;6089594;23;20065;-80
2024/01/14 00:29:36;;;;;;;9.02;3.40;;;;;;;;;;6088551;23;20658;-80
2024/01/14 00:32:10;;;;;;;10.13;3.95;;;;;;;;;;6090483;23;20074;-79
2024/01/14 00:34:37;;;;;;;;;;;;;;;;;;6085260;23;20337;-79
2024/01/14 00:37:04;;;;;;;8.13;3.85;;;;;;;;;;6089242;23;19980;-80
2024/01/14 00:39:38;;;;;;;7.22;3.70;;;;;;;;;;6090803;23;20029;-80
2024/01/14 00:42:05;;;;;;;7.20;3.20;;;;;;;;;;6090198;23;20026;-80
2024/01/14 00:44:33;;;;;;;9.65;3.72;;;;;;;;;;6090123;23;20105;-79
2024/01/14 00:47:07;;;;;;;6.70;3.25;;;;;;;;;;6088674;23;20073;-80
2024/01/14 00:49:34;;;;;;;6.68;3.30;;;;;;;;;;6090268;23;20690;-80
2024/01/14 00:52:08;;;;;;;7.25;3.33;;;;;;;;;;6090094;23;20823;-80
2024/01/14 00:54:35;;;;;;;;;;;;;;;;;;6088168;23;20022;-79
2024/01/14 00:57:04;;;;;;;6.55;3.05;;;;;;;;;;6090470;23;19917;-79
2024/01/14 00:59:38;;;;;;;8.40;3.55;;;;;;;;;;6086773;23;20097;-79
2024/01/14 01:02:05;;;;;;;6.40;2.85;;;;;;;;;;6088525;23;20034;-79
2024/01/14 01:04:38;;;;;;;9.70;3.50;;;;;;;;;;6089420;23;20026;-79
2024/01/14 01:07:06;;;;;;;9.52;3.22;;;;;;;;;;6089577;23;20026;-79
2024/01/14 01:09:36;;;;;;;10.18;3.50;;;;;;;;;;6088766;23;20061;-78
2024/01/14 01:12:11;;;;;;;13.02;3.67;;;;;;;;;;6088883;23;20026;-79
2024/01/14 01:14:47;;;;;;;5.00;2.72;;;;;;;;;;6087933;23;20034;-80
2024/01/14 01:17:27;;;;;;;7.97;3.00;;;;;;;;;;6088979;23;20027;-79
2024/01/14 01:19:54;;;;;;;6.28;3.08;;;;;;;;;;6088266;23;20065;-79
2024/01/14 01:22:29;;;;;;;6.63;2.97;;;;;;;;;;6089173;23;20027;-80
2024/01/14 01:24:56;;;;;;;6.80;2.65;;;;;;;;;;6086731;23;20031;-79
2024/01/14 01:27:23;;;;;;;5.88;2.50;;;;;;;;;;6087466;23;20551;-79
2024/01/14 01:29:58;;;;;;;9.73;3.05;;;;;;;;;;6087218;23;20539;-80
2024/01/14 01:32:25;;;;;;;;;;;;;;;;;;6089642;23;20038;-80
2024/01/14 01:34:59;;;;;;;5.95;3.05;;;;;;;;;;6089982;23;19941;-79
2024/01/14 01:37:26;;;;;;;9.57;3.58;;;;;;;;;;6089039;23;20074;-80
2024/01/14 01:39:53;;;;;;;8.38;3.13;;;;;;;;;;6089134;23;20446;-79
2024/01/14 01:42:27;;;;;;;5.80;2.85;;;;;;;;;;6087504;23;20029;-79
2024/01/14 01:44:55;;;;;;;6.95;2.33;;;;;;;;;;6089886;23;20023;-79
2024/01/14 01:47:29;;;;;;;5.55;2.45;;;;;;;;;;6089516;23;20026;-79
2024/01/14 01:49:56;;;;;;;5.75;2.53;;;;;;;;;;6091486;23;20056;-79
2024/01/14 01:52:24;;;;;;;6.55;2.60;;;;;;;;;;6089923;23;20036;-79
2024/01/14 01:54:59;;;;;;;3.97;2.10;;;;;;;;;;6090461;23;20060;-79
2024/01/14 01:57:26;;;;;;;7.68;2.65;;;;;;;;;;6090942;23;20423;-79
2024/01/14 02:00:01;;;;;;;6.38;2.35;;;;;;;;;;6090129;23;20089;-79
2024/01/14 02:02:28;;;;;;;7.95;2.63;;;;;;;;;;6090604;23;20101;-79
2024/01/14 02:04:56;;;;;;;7.10;2.63;;;;;;;;;;6088418;23;20068;-79
2024/01/14 02:07:30;;;;;;;5.15;2.33;;;;;;;;;;6090628;23;20026;-79
2024/01/14 02:09:57;;;;;;;3.95;1.55;;;;;;;;;;6090437;23;20054;-79
2024/01/14 02:12:31;;;;;;;7.60;2.05;;;;;;;;;;6090123;23;20042;-79
2024/01/14 02:15:05;;;;;;;;;;;;;;;;;;6090576;23;20022;-79
2024/01/14 02:17:40;;;;;;;5.93;2.05;;;;;;;;;;6090233;23;19988;-79
2024/01/14 02:20:08;;;;;;;4.28;2.00;;;;;;;;;;6091305;23;20341;-79
2024/01/14 02:22:37;;;;;;;6.68;1.80;;;;;;;;;;6090357;23;20026;-80
2024/01/14 02:25:12;;;;;;;11.43;2.00;;;;;;;;;;6090966;23;20508;-80
2024/01/14 02:27:39;;;;;;;4.40;1.88;;;;;;;;;;6090813;23;20085;-80
2024/01/14 02:30:14;;;;;;;3.53;1.55;;;;;;;;;;6089527;23;20049;-80
2024/01/14 02:32:42;;;;;;;5.63;1.90;;;;;;;;;;6089515;23;20026;-80
2024/01/14 02:35:09;;;;;;;5.85;1.90;;;;;;;;;;6090361;23;20177;-79
2024/01/14 02:37:47;;;;;;;4.70;2.20;;;;;;;;;;6089888;23;20030;-80
2024/01/14 02:40:16;;;;;;;3.53;1.83;;;;;;;;;;6090212;23;20022;-79
2024/01/14 02:42:50;;;;;;;4.20;1.90;;;;;;;;;;6089774;23;20097;-80
2024/01/14 02:45:18;;;;;;;7.03;2.00;;;;;;;;;;6090262;23;20394;-79
2024/01/14 02:47:45;;;;;;;8.05;2.38;;;;;;;;;;6090166;23;20022;-79
2024/01/14 02:50:20;;;;;;;4.00;1.92;;;;;;;;;;6087086;23;20023;-79
2024/01/14 02:52:47;;;;;;;8.25;1.70;;;;;;;;;;6088798;23;20389;-80
2024/01/14 02:55:22;;;;;;;5.65;1.70;;;;;;;;;;6087172;23;20102;-80
2024/01/14 02:57:49;;;;;;;9.15;1.90;;;;;;;;;;6087334;23;20030;-80
2024/01/14 03:00:16;;;;;;;3.72;1.60;;;;;;;;;;6088344;23;20034;-79
2024/01/14 03:02:51;;;;;;;5.53;1.52;;;;;;;;;;6089525;23;20032;-80
2024/01/14 03:05:18;;;;;;;8.65;1.70;;;;;;;;;;6088263;23;20027;-79
2024/01/14 03:07:51;;;;;;;4.47;1.58;;;;;;;;;;6088721;23;20483;-79
2024/01/14 03:10:19;;;;;;;7.22;2.10;;;;;;;;;;6088435;23;20022;-80
2024/01/14 03:12:46;;;;;;;9.77;1.85;;;;;;;;;;6089060;23;20504;-80
2024/01/14 03:15:26;;;;;;;5.78;1.70;;;;;;;;;;6087280;23;20032;-79
2024/01/14 03:17:54;;;;;;;5.88;1.80;;;;;;;;;;6088998;23;20105;-79
2024/01/14 03:20:28;;;;;;;6.40;1.73;;;;;;;;;;6089409;23;20085;-79
2024/01/14 03:22:55;;;;;;;5.10;1.98;;;;;;;;;;6088084;23;20026;-79
2024/01/14 03:25:22;;;;;;;7.82;1.60;;;;;;;;;;6087538;23;20412;-79
2024/01/14 03:27:55;;;;;;;4.35;1.70;;;;;;;;;;6087758;23;20026;-79
2024/01/14 03:30:23;;;;;;;5.07;2.05;;;;;;;;;;6088614;23;20033;-79
2024/01/14 03:32:57;;;;;;;5.05;1.85;;;;;;;;;;6090535;23;20054;-79
2024/01/14 03:35:24;;;;;;;;;;;;;;;;;;6089916;23;20030;-79
2024/01/14 03:37:51;;;;;;;6.05;1.75;;;;;;;;;;6090168;23;20110;-80
2024/01/14 03:40:25;;;;;;;4.82;1.95;;;;;;;;;;6088091;23;20303;-80
2024/01/14 03:42:52;;;;;;;;;;;;;;;;;;6089649;23;20026;-79
2024/01/14 03:45:26;;;;;;;4.55;1.60;;;;;;;;;;6089818;23;19975;-79
2024/01/14 03:47:53;;;;;;;5.55;1.80;;;;;;;;;;6090201;23;20022;-79
2024/01/14 03:50:20;;;;;;;9.52;2.10;;;;;;;;;;6086009;23;20579;-79
2024/01/14 03:52:54;;;;;;;8.57;1.85;;;;;;;;;;6090981;23;20077;-79
2024/01/14 03:55:21;;;;;;;9.98;2.17;;;;;;;;;;6088581;23;20031;-79
2024/01/14 03:57:58;;;;;;;9.57;2.00;;;;;;;;;;6090240;23;20034;-79
2024/01/14 04:00:25;;;;;;;6.03;1.65;;;;;;;;;;6087811;23;20034;-79
2024/01/14 04:02:52;;;;;;;;;;;;;;;;;;6090450;23;20018;-80
2024/01/14 04:05:27;;;;;;;5.97;2.03;;;;;;;;;;6089502;23;20365;-79
2024/01/14 04:07:54;;;;;;;;;;;;;;;;;;6089113;23;20498;-79
2024/01/14 04:10:21;;;;;;;2.92;1.23;;;;;;;;;;6089575;23;19920;-79
2024/01/14 04:12:54;;;;;;;7.50;1.83;;;;;;;;;;6089163;23;20469;-79
2024/01/14 04:15:22;;;;;;;2.85;1.58;;;;;;;;;;6088854;23;20026;-79
2024/01/14 04:18:03;;;;;;;4.07;1.63;;;;;;;;;;6088149;23;20034;-79
2024/01/14 04:20:30;;;;;;;12.43;2.38;;;;;;;;;;6087480;23;20026;-79
2024/01/14 04:23:04;;;;;;;3.97;1.70;;;;;;;;;;6090519;23;20026;-79
2024/01/14 04:25:32;;;;;;;6.28;1.95;;;;;;;;;;6090377;23;20400;-79
2024/01/14 04:28:01;;;;;;;3.45;1.50;;;;;;;;;;6090241;23;20445;-79
2024/01/14 04:30:36;;;;;;;4.78;1.63;;;;;;;;;;6089278;23;20034;-79
2024/01/14 04:33:03;;;;;;;6.72;1.90;;;;;;;;;;6090473;23;20022;-79
2024/01/14 04:35:31;;;;;;;3.38;1.70;;;;;;;;;;6088844;23;20018;-79
2024/01/14 04:38:04;;;;;;;7.22;2.20;;;;;;;;;;6089276;23;20030;-79
2024/01/14 04:40:32;;;;;;;5.68;1.88;;;;;;;;;;6087940;23;20026;-78
2024/01/14 04:43:06;;;;;;;4.90;1.73;;;;;;;;;;6090564;23;20089;-79
2024/01/14 04:45:34;;;;;;;5.32;1.50;;;;;;;;;;6089949;23;20031;-79
2024/01/14 04:48:02;;;;;;;8.95;1.60;;;;;;;;;;6090600;23;20356;-79
2024/01/14 04:50:39;;;;;;;5.47;2.00;;;;;;;;;;6088112;23;20034;-80
2024/01/14 04:53:07;;;;;;;8.50;1.90;;;;;;;;;;6089718;23;20415;-79
2024/01/14 04:55:40;;;;;;;3.85;1.90;;;;;;;;;;6087747;23;20045;-79
2024/01/14 04:58:08;;;;;;;2.03;1.30;;;;;;;;;;6088637;23;20074;-79
2024/01/14 05:00:35;;;;;;;;;;;;;;;;;;6088615;23;20019;-78
2024/01/14 05:03:09;;;;;;;4.90;1.55;;;;;;;;;;6088810;23;19921;-79
2024/01/14 05:05:36;;;;;;;;;;;;;;;;;;6088432;23;20026;-79
2024/01/14 05:08:10;;;;;;;8.27;1.90;;;;;;;;;;6089047;23;19985;-80
2024/01/14 05:10:37;;;;;;;;;;;;;;;;;;6088965;23;20230;-80
2024/01/14 05:13:04;;;;;;;6.53;1.67;;;;;;;;;;6088287;23;19917;-79
2024/01/14 05:15:51;;;;;;;4.10;1.50;;;;;;;;;;6087554;23;20030;-79
2024/01/14 05:18:25;;;;;;;4.50;1.60;;;;;;;;;;6089184;23;20023;-79
2024/01/14 05:21:00;;;;;;;2.35;1.42;;;;;;;;;;6089563;23;20022;-79
2024/01/14 05:23:27;;;;;;;;;;;;;;;;;;6092400;23;20093;-79
2024/01/14 05:25:54;;;;;;;4.72;1.67;;;;;;;;;;6090218;23;19917;-79
2024/01/14 05:28:28;;;;;;;3.38;1.58;;;;;;;;;;6088442;23;20547;-79
2024/01/14 05:30:55;;;;;;;8.52;1.70;;;;;;;;;;6090144;23;20034;-79
2024/01/14 05:33:30;;;;;;;3.47;1.45;;;;;;;;;;6088731;23;20022;-79
2024/01/14 05:35:57;;;;;;;;;;;;;;;;;;6090308;23;20030;-79
2024/01/14 05:38:24;;;;;;;2.28;1.48;;;;;;;;;;6088761;23;19932;-79
2024/01/14 05:40:57;;;;;;;8.95;1.90;;;;;;;;;;6088825;23;20030;-79
2024/01/14 05:43:25;;;;;;;2.53;1.42;;;;;;;;;;6090821;23;20468;-79
2024/01/14 05:45:52;;;;;;;4.65;2.10;;;;;;;;;;6090667;23;20034;-79
2024/01/14 05:48:26;;;;;;;5.45;1.80;;;;;;;;;;6089800;23;20033;-79
2024/01/14 05:50:53;;;;;;;7.65;1.63;;;;;;;;;;6088972;23;20069;-79
2024/01/14 05:53:20;;;;;;;6.53;1.70;;;;;;;;;;6090844;23;20050;-79
2024/01/14 05:55:54;;;;;;;12.20;1.80;;;;;;;;;;6088596;23;20022;-78
2024/01/14 05:58:22;;;;;;;2.95;1.67;;;;;;;;;;6090359;23;20026;-79
2024/01/14 06:00:55;;;;;;;5.53;1.70;;;;;;;;;;6087370;23;20090;-78
2024/01/14 06:03:23;;;;;;;;;;;;;;;;;;6088449;23;20499;-79
2024/01/14 06:05:56;;;;;;;6.18;1.48;;;;;;;;;;6088627;23;19921;-79
2024/01/14 06:08:31;;;;;;;7.15;1.65;;;;;;;;;;6087982;23;20393;-78
2024/01/14 06:10:58;;;;;;;6.80;2.05;;;;;;;;;;6088028;23;20037;-78
2024/01/14 06:13:25;;;;;;;6.30;1.50;;;;;;;;;;6088837;23;20030;-78
2024/01/14 06:16:06;;;;;;;5.85;1.52;;;;;;;;;;6086976;23;20022;-79
2024/01/14 06:18:33;;;;;;;4.30;1.60;;;;;;;;;;6088899;23;20536;-78
2024/01/14 06:21:08;;;;;;;5.38;2.00;;;;;;;;;;6088123;23;20274;-79
2024/01/14 06:23:36;;;;;;;9.15;1.98;;;;;;;;;;6090178;23;20034;-79
2024/01/14 06:26:03;;;;;;;;;;;;;;;;;;6090582;23;20030;-79
2024/01/14 06:28:36;;;;;;;3.85;1.35;;;;;;;;;;6089549;23;19985;-79
2024/01/14 06:31:04;;;;;;;;;;;;;;;;;;6089854;23;20455;-78
2024/01/14 06:33:38;;;;;;;5.78;1.50;;;;;;;;;;6090068;23;19956;-79
2024/01/14 06:36:06;;;;;;;3.78;1.48;;;;;;;;;;6089480;23;20030;-78
2024/01/14 06:38:34;;;;;;;3.38;1.65;;;;;;;;;;6093652;23;20027;-79
2024/01/14 06:41:08;;;;;;;9.55;1.80;;;;;;;;;;6090716;23;20030;-79
2024/01/14 06:43:37;;;;;;;4.68;1.52;;;;;;;;;;6092016;23;20023;-78
2024/01/14 06:46:11;;;;;;;4.97;1.60;;;;;;;;;;6084565;23;20452;-79
2024/01/14 06:48:39;;;;;;;6.55;1.45;;;;;;;;;;6089671;23;20029;-78
2024/01/14 06:51:13;;;;;;;6.35;1.48;;;;;;;;;;6090349;23;20041;-78
2024/01/14 06:53:40;;;;;;;3.80;1.52;;;;;;;;;;6087798;23;20027;-78
2024/01/14 06:56:08;;;;;;;6.85;1.83;;;;;;;;;;6087910;23;20040;-79
2024/01/14 06:58:42;;;;;;;5.78;1.50;;;;;;;;;;6090736;23;20030;-78
2024/01/14 07:01:10;;;;;;;;;;;;;;;;;;6090832;23;20022;-78
2024/01/14 07:03:44;;;;;;;8.23;1.85;;;;;;;;;;6088464;23;20004;-78
2024/01/14 07:06:11;;;;;;;11.80;1.77;;;;;;;;;;6089606;23;20065;-78
2024/01/14 07:08:40;;;;;;;4.10;1.55;;;;;;;;;;6090014;23;20101;-78
2024/01/14 07:11:13;;;;;;;2.90;1.35;;;;;;;;;;6089828;23;20038;-78
2024/01/14 07:13:43;;;;;;;;;;;;;;;;;;6092072;23;20467;-78
2024/01/14 07:16:24;;;;;;;5.57;1.80;;;;;;;;;;6086336;23;19972;-78
2024/01/14 07:18:58;;;;;;;7.05;1.60;;;;;;;;;;6090169;23;20030;-79
2024/01/14 07:21:26;;;;;;;6.22;1.80;;;;;;;;;;6088090;23;20368;-79
2024/01/14 07:23:54;;;;;;;;;;;;;;;;;;6088860;23;20030;-78
2024/01/14 07:26:27;;;;;;;7.68;1.92;;;;;;;;;;6087934;23;19975;-79
2024/01/14 07:28:55;;;;;;;7.43;2.25;;;;;;;;;;6087007;23;20427;-78
2024/01/14 07:31:30;;;;;;;4.10;1.50;;;;;;;;;;6088371;23;20031;-79
2024/01/14 07:33:58;;;;;;;4.18;1.67;;;;;;;;;;6089772;23;20038;-79
2024/01/14 07:36:32;;;;;;;4.55;1.58;;;;;;;;;;6091567;23;20023;-79
2024/01/14 07:38:59;;;;;;;4.07;1.80;;;;;;;;;;6089102;23;20026;-79
2024/01/14 07:41:26;;;;;;;;;;;;;;;;;;6088040;23;20385;-79
2024/01/14 07:44:01;;;;;;;3.30;1.95;;;;;;;;;;6089153;23;20462;-79
2024/01/14 07:46:28;;;;;;;5.70;2.00;;;;;;;;;;6085130;23;20030;-79
2024/01/14 07:48:55;;;;;;;14.15;1.92;;;;;;;;;;6090828;23;20026;-79
2024/01/14 07:51:30;;;;;;;3.67;1.67;;;;;;;;;;6088962;23;20464;-79
2024/01/14 07:53:57;;;;;;;4.50;1.50;;;;;;;;;;6091451;23;20097;-79
2024/01/14 07:56:31;;;;;;;7.63;1.90;;;;;;;;;;6087731;23;20022;-79
2024/01/14 07:58:58;;;;;;;6.70;2.20;;;;;;;;;;6090857;23;20638;-79
2024/01/14 08:01:31;;;;;;;6.88;1.98;;;;;;;;;;6090351;23;20531;-79
2024/01/14 08:04:05;;;;;;;5.82;1.65;;;;;;;;;;6090166;23;20022;-79
2024/01/14 08:06:39;;;;;;;5.95;2.08;;;;;;;;;;6089755;23;20057;-79
2024/01/14 08:09:09;;;;;;;6.68;1.83;;;;;;;;;;6090419;23;20788;-78
2024/01/14 08:11:36;;;;;;;5.85;1.80;;;;;;;;;;6089332;23;20026;-79
2024/01/14 08:14:23;;;;;;;4.03;2.40;;;;;;;;;;6087414;23;20031;-79
2024/01/14 08:16:57;;;;;;;5.05;2.80;;;;;;;;;;6057382;23;20031;-79
2024/01/14 08:19:32;;;;;;;9.55;2.53;;;;;;;;;;6059931;23;20031;-79
2024/01/14 08:22:00;;;;;;;7.78;2.20;;;;;;;;;;6059894;23;20026;-78
2024/01/14 08:24:27;;;;;;;10.65;1.98;;;;;;;;;;6060753;23;20030;-79
2024/01/14 08:27:02;;;;;;;6.63;1.52;;;;;;;;;;6060148;23;20027;-79
2024/01/14 08:29:29;;;;;;;;;;;;;;;;;;6061921;23;20059;-78
2024/01/14 08:31:56;;;;;;;8.13;2.10;;;;;;;;;;6057211;23;20336;-79
2024/01/14 08:34:30;;;;;;;9.23;1.73;;;;;;;;;;6036497;23;20533;-79
2024/01/14 08:36:57;;;;;;;7.13;1.50;;;;;;;;;;6060349;23;20098;-79
2024/01/14 08:39:24;;;;;;;3.15;1.63;;;;;;;;;;6060367;23;20026;-79
2024/01/14 08:41:59;;;;;;;8.07;1.85;;;;;;;;;;6057856;23;20453;-79
2024/01/14 08:44:26;;;;;;;;;;;;;;;;;;6036168;23;20415;-79
2024/01/14 08:47:01;;;;;;;5.50;1.80;;;;;;;;;;6060697;23;19918;-79
2024/01/14 08:49:29;;;;;;;4.90;1.70;;;;;;;;;;6059108;23;20023;-79
2024/01/14 08:51:57;;;;;;;6.50;2.00;;;;;;;;;;6061640;23;20029;-79
2024/01/14 08:54:34;;;;;;;8.73;1.90;;;;;;;;;;6059488;23;20082;-79
2024/01/14 08:57:01;;;;;;;5.38;1.85;;;;;;;;;;6060232;23;20605;-79
2024/01/14 08:59:32;;;;;;;6.20;1.92;;;;;;;;;;6060443;23;20027;-79
2024/01/14 09:02:06;;;;;;;8.68;2.03;;;;;;;;;;6035453;23;20652;-78
2024/01/14 09:04:34;;;;;;;8.00;2.25;;;;;;;;;;6060316;23;20035;-79
2024/01/14 09:07:02;;;;;;;9.27;2.03;;;;;;;;;;6059683;23;20031;-79
2024/01/14 09:09:43;;;;;;;4.15;1.80;;;;;;;;;;6059958;23;20031;-79
2024/01/14 09:12:11;;;;;;;6.53;2.05;;;;;;;;;;6060250;23;20027;-79
2024/01/14 09:14:58;;;;;;;6.47;1.90;;;;;;;;;;6060696;23;20058;-79
2024/01/14 09:17:32;;;;;;;7.43;1.63;;;;;;;;;;6089572;23;20030;-79
2024/01/14 09:20:07;;;;;;;6.38;2.08;;;;;;;;;;6088619;23;20029;-80
2024/01/14 09:22:35;;;;;;;9.13;2.00;;;;;;;;;;6086234;23;20027;-80
2024/01/14 09:25:02;;;;;;;7.45;1.75;;;;;;;;;;6089138;23;20082;-79
2024/01/14 09:27:39;;;;;;;3.38;1.30;;;;;;;;;;6088072;23;20105;-80
2024/01/14 09:30:13;;;;;;;6.72;2.10;;;;;;;;;;6086289;23;20365;-79
2024/01/14 09:32:47;;;;;;;12.18;2.67;;;;;;;;;;6086298;23;20036;-79
2024/01/14 09:35:14;;;;;;;10.13;1.67;;;;;;;;;;6088143;23;20041;-79
2024/01/14 09:37:44;;;;;;;13.23;2.10;;;;;;;;;;6089862;23;20098;-79
2024/01/14 09:40:19;;;;;;;11.15;1.85;;;;;;;;;;6088517;23;20085;-79
2024/01/14 09:42:46;;;;;;;;;;;;;;;;;;6086210;23;20383;-79
2024/01/14 09:45:14;;;;;;;9.48;2.13;;;;;;;;;;6086211;23;19928;-80
2024/01/14 09:47:57;;;;;;;8.13;2.00;;;;;;;;;;6085687;23;20022;-79
2024/01/14 09:50:31;;;;;;;12.55;2.13;;;;;;;;;;6088334;23;20030;-79
2024/01/14 09:52:59;;;;;;;6.43;2.05;;;;;;;;;;6087775;23;20022;-80
2024/01/14 09:55:26;;;;;;;6.35;1.92;;;;;;;;;;6084768;23;20025;-80
2024/01/14 09:58:01;;;;;;;11.60;2.33;;;;;;;;;;6088336;23;20038;-79
2024/01/14 10:00:30;;;;;;;13.45;5.43;;;;;;;;;;6086554;23;20026;-80
2024/01/14 10:03:05;;;;;;;20.05;12.80;;;;;;;;;;6086439;23;20488;-80
2024/01/14 10:05:34;;;;;;;24.77;14.70;;;;;;;;;;6087677;23;20106;-80
2024/01/14 10:08:08;;;;;;;9.15;4.32;;;;;;;;;;6089252;23;20032;-80
2024/01/14 10:10:35;;;;;;;12.55;3.40;;;;;;;;;;6089266;23;20078;-79
2024/01/14 10:13:03;;;;;;;8.98;4.95;;;;;;;;;;6088922;23;20490;-79
2024/01/14 10:15:43;;;;;;;12.75;3.60;;;;;;;;;;6089272;23;20030;-79
2024/01/14 10:18:21;;;;;;;9.23;2.88;;;;;;;;;;6089007;23;20412;-80
2024/01/14 10:20:56;;;;;;;6.45;2.95;;;;;;;;;;6089292;23;20097;-79
2024/01/14 10:23:23;;;;;;;13.52;4.78;;;;;;;;;;6090104;23;20720;-80
2024/01/14 10:25:54;;;;;;;15.98;3.58;;;;;;;;;;6087757;23;20018;-80
2024/01/14 10:28:46;;;;;;;8.63;2.85;;;;;;;;;;6090290;23;20026;-79
2024/01/14 10:31:13;;;;;;;16.17;2.75;;;;;;;;;;6089032;23;20058;-80
2024/01/14 10:33:47;;;;;;;9.35;2.70;;;;;;;;;;6086570;23;20026;-80
2024/01/14 10:36:21;;;;;;;12.10;6.38;;;;;;;;;;6088654;23;20034;-80
2024/01/14 10:38:48;;;;;;;14.60;8.48;;;;;;;;;;6089808;23;20054;-80
2024/01/14 10:41:16;;;;;;;14.93;6.93;;;;;;;;;;6090754;23;20476;-79
2024/01/14 10:43:53;;;;;;;10.85;4.30;;;;;;;;;;6090120;23;20026;-80
2024/01/14 10:46:20;;;;;;;9.65;4.03;;;;;;;;;;6087204;23;20603;-79
2024/01/14 10:48:47;;;;;;;;;;;;;;;;;;6090489;23;20034;-80
2024/01/14 10:51:25;;;;;;;13.52;3.05;;;;;;;;;;6089813;23;20354;-80
2024/01/14 10:54:05;;;;;;;25.48;11.40;;;;;;;;;;6089961;23;20018;-80
2024/01/14 10:56:40;;;;;;;9.48;4.05;;;;;;;;;;6089403;23;20403;-80
2024/01/14 10:59:12;;;;;;;11.52;3.30;;;;;;;;;;6088165;23;20535;-80
2024/01/14 11:01:50;;;;;;;11.13;3.00;;;;;;;;;;6088576;23;20149;-80
2024/01/14 11:04:20;;;;;;;7.20;2.67;;;;;;;;;;6090556;23;20064;-79
2024/01/14 11:06:55;;;;;;;10.73;2.67;;;;;;;;;;6086924;23;20081;-79
2024/01/14 11:09:28;;;;;;;6.93;2.53;;;;;;;;;;6088428;23;20035;-79
2024/01/14 11:12:17;;;;;;;9.25;2.95;;;;;;;;;;6087781;23;20090;-80
2024/01/14 11:15:12;;;;;;;23.92;10.10;;;;;;;;;;6088880;23;20082;-79
2024/01/14 11:17:50;;;;;;;25.88;12.40;;;;;;;;;;6088787;23;20032;-79
2024/01/14 11:20:26;;;;;;;24.73;15.18;;;;;;;;;;6088889;23;20084;-80
2024/01/14 11:23:05;;;;;;;12.02;4.00;;;;;;;;;;6087522;23;20018;-80
2024/01/14 11:25:45;;;;;;;13.05;3.22;;;;;;;;;;6087464;23;20037;-80
2024/01/14 11:28:13;;;;;;;7.53;2.85;;;;;;;;;;6087011;23;20137;-80
2024/01/14 11:30:51;;;;;;;15.20;2.70;;;;;;;;;;6088806;23;20400;-81
2024/01/14 11:33:42;;;;;;;15.38;2.78;;;;;;;;;;6089659;23;20038;-80
2024/01/14 11:36:37;;;;;;;18.42;3.00;;;;;;;;;;6086046;23;20466;-80
2024/01/14 11:39:05;;;;;;;8.48;2.40;;;;;;;;;;6073993;23;20038;-80
2024/01/14 11:41:42;;;;;;;7.80;2.45;;;;;;;;;;6089059;23;20030;-80
2024/01/14 11:44:10;;;;;;;10.30;2.60;;;;;;;;;;6089778;23;20038;-80
2024/01/14 11:46:41;;;;;;;9.85;2.53;;;;;;;;;;6085849;23;20030;-79
2024/01/14 11:49:20;;;;;;;7.90;2.70;;;;;;;;;;6089092;23;20031;-79
2024/01/14 11:51:56;;;;;;;10.77;3.03;;;;;;;;;;6086188;23;20030;-80
2024/01/14 11:54:29;;;;;;;;;;;;;;;;;;6088311;23;20030;-79
2024/01/14 11:57:21;;;;;;;9.15;3.20;;;;;;;;;;6087305;23;19924;-79
2024/01/14 11:59:49;;;;;;;9.50;2.20;;;;;;;;;;6088131;23;20364;-79
2024/01/14 12:02:23;;;;;;;8.98;3.20;;;;;;;;;;6088333;23;20085;-79
2024/01/14 12:04:51;;;;;;;28.55;11.43;;;;;;;;;;6083366;23;20027;-79
2024/01/14 12:07:30;;;;;;;44.05;17.60;;;;;;;;;;6088676;23;20030;-79
2024/01/14 12:10:04;;;;;;;24.15;10.65;;;;;;;;;;6087446;23;20022;-78
2024/01/14 12:12:31;;;;;;;9.73;4.55;;;;;;;;;;6085768;23;20568;-79
2024/01/14 12:15:12;;;;;;;9.20;2.60;;;;;;;;;;6087723;23;20097;-79
2024/01/14 12:17:53;;;;;;;11.10;4.53;;;;;;;;;;6087481;23;20030;-79
2024/01/14 12:20:27;;;;;;;15.75;7.47;;;;;;;;;;6086167;23;20381;-79
2024/01/14 12:22:55;;;;;;;14.23;7.00;;;;;;;;;;6084422;23;20339;-79
2024/01/14 12:25:23;;;;;;;13.02;4.72;;;;;;;;;;6085040;23;20374;-78
2024/01/14 12:27:58;;;;;;;8.90;3.80;;;;;;;;;;6085730;23;20368;-79
2024/01/14 12:30:25;;;;;;;12.75;4.00;;;;;;;;;;6086140;23;20030;-79
2024/01/14 12:32:52;;;;;;;;;;;;;;;;;;6086500;23;20026;-79
2024/01/14 12:35:34;;;;;;;20.17;4.45;;;;;;;;;;6086663;23;19928;-78
2024/01/14 12:38:01;;;;;;;9.23;3.40;;;;;;;;;;6085440;23;20046;-79
2024/01/14 12:40:35;;;;;;;13.65;3.40;;;;;;;;;;6084594;23;20198;-79
2024/01/14 12:43:03;;;;;;;12.73;3.13;;;;;;;;;;6084853;23;20646;-79
2024/01/14 12:45:45;;;;;;;11.40;2.55;;;;;;;;;;6083730;23;20023;-78
2024/01/14 12:48:19;;;;;;;13.63;2.38;;;;;;;;;;6086890;23;20666;-79
2024/01/14 12:50:57;;;;;;;15.43;3.00;;;;;;;;;;6085567;23;20045;-79
2024/01/14 12:53:25;;;;;;;15.45;3.08;;;;;;;;;;6085610;23;20141;-79
2024/01/14 12:55:52;;;;;;;20.05;3.80;;;;;;;;;;6086478;23;20026;-78
2024/01/14 12:58:26;;;;;;;14.93;3.70;;;;;;;;;;6083140;23;20526;-79
2024/01/14 13:00:54;;;;;;;12.40;2.95;;;;;;;;;;6087386;23;20101;-79
2024/01/14 13:03:28;;;;;;;19.95;5.85;;;;;;;;;;6089883;23;20235;-79
2024/01/14 13:05:55;;;;;;;;;;;;;;;;;;6090052;23;20355;-79
2024/01/14 13:08:22;;;;;;;16.35;4.95;;;;;;;;;;6091160;23;20000;-79
2024/01/14 13:10:57;;;;;;;14.52;3.90;;;;;;;;;;6090763;23;20034;-79
2024/01/14 13:13:24;;;;;;;15.45;3.38;;;;;;;;;;6089746;23;20089;-80
2024/01/14 13:15:52;;;;;;;18.30;4.40;;;;;;;;;;6088919;23;20026;-79
2024/01/14 13:18:32;;;;;;;6.40;3.15;;;;;;;;;;6088779;23;20033;-79
2024/01/14 13:21:00;;;;;;;26.65;4.15;;;;;;;;;;6089617;23;20063;-79
2024/01/14 13:23:34;;;;;;;14.13;3.65;;;;;;;;;;6087478;23;20078;-79
2024/01/14 13:26:01;;;;;;;16.50;4.07;;;;;;;;;;6086575;23;20027;-79
2024/01/14 13:28:28;;;;;;;13.60;3.72;;;;;;;;;;6088830;23;20512;-79
2024/01/14 13:31:03;;;;;;;18.42;3.97;;;;;;;;;;6087826;23;20068;-79
2024/01/14 13:33:30;;;;;;;20.77;4.65;;;;;;;;;;6089096;23;20033;-79
2024/01/14 13:35:58;;;;;;;71.30;29.58;;;;;;;;;;6089006;23;20019;-79
2024/01/14 13:38:32;;;;;;;33.97;11.95;;;;;;;;;;6088384;23;20026;-79
2024/01/14 13:41:06;;;;;;;21.83;7.53;;;;;;;;;;6087833;23;20026;-80
2024/01/14 13:43:34;;;;;;;17.38;6.05;;;;;;;;;;6089740;23;20065;-80
2024/01/14 13:46:01;;;;;;;21.85;6.22;;;;;;;;;;6088979;23;20022;-79
2024/01/14 13:48:35;;;;;;;19.15;5.10;;;;;;;;;;6089433;23;20030;-78
2024/01/14 13:51:02;;;;;;;;;;;;;;;;;;6090747;23;20551;-79
2024/01/14 13:53:29;;;;;;;17.35;5.05;;;;;;;;;;6087720;23;20596;-79
2024/01/14 13:56:04;;;;;;;15.85;4.20;;;;;;;;;;6089343;23;20030;-78
2024/01/14 13:58:31;;;;;;;20.27;5.13;;;;;;;;;;6091371;23;20486;-79
2024/01/14 14:01:06;;;;;;;18.73;4.43;;;;;;;;;;6089964;23;20118;-79
2024/01/14 14:03:33;;;;;;;24.00;4.82;;;;;;;;;;6089155;23;20400;-79
2024/01/14 14:06:01;;;;;;;28.05;8.00;;;;;;;;;;6088709;23;20023;-79
2024/01/14 14:08:35;;;;;;;25.58;6.13;;;;;;;;;;6089908;23;20033;-79
2024/01/14 14:11:02;;;;;;;21.13;4.43;;;;;;;;;;6087879;23;20023;-79
2024/01/14 14:13:36;;;;;;;16.02;4.70;;;;;;;;;;6085439;23;20030;-79
2024/01/14 14:16:09;;;;;;;23.85;6.55;;;;;;;;;;6086633;23;20389;-79
2024/01/14 14:19:02;;;;;;;22.27;4.55;;;;;;;;;;6086221;23;20037;-80
2024/01/14 14:21:37;;;;;;;24.92;4.47;;;;;;;;;;6084557;23;20371;-80
2024/01/14 14:24:25;;;;;;;;;;;;;;;;;;6086794;23;20820;-79
2024/01/14 14:26:53;;;;;;;21.08;6.40;;;;;;;;;;6088250;23;19921;-79
2024/01/14 14:29:27;;;;;;;37.67;11.27;;;;;;;;;;6088130;23;20053;-80
2024/01/14 14:31:54;;;;;;;28.05;9.45;;;;;;;;;;6087035;23;20022;-79
2024/01/14 14:34:28;;;;;;;21.00;6.70;;;;;;;;;;6088295;23;20026;-79
2024/01/14 14:36:55;;;;;;;;;;;;;;;;;;6083224;23;20035;-80
2024/01/14 14:39:30;;;;;;;18.17;4.50;;;;;;;;;;6086921;23;20398;-79
2024/01/14 14:41:57;;;;;;;18.05;5.03;;;;;;;;;;6088684;23;20026;-79
2024/01/14 14:44:24;;;;;;;24.60;5.18;;;;;;;;;;6088134;23;20057;-79
2024/01/14 14:46:59;;;;;;;30.30;4.30;;;;;;;;;;6086933;23;20030;-79
2024/01/14 14:49:26;;;;;;;17.73;4.93;;;;;;;;;;6084532;23;20277;-80
2024/01/14 14:51:53;;;;;;;;;;;;;;;;;;6085958;23;20094;-80
2024/01/14 14:54:28;;;;;;;23.75;4.78;;;;;;;;;;6085052;23;19921;-79
2024/01/14 14:56:55;;;;;;;19.75;4.50;;;;;;;;;;6086422;23;20089;-80
2024/01/14 14:59:30;;;;;;;20.83;4.22;;;;;;;;;;6083783;23;20612;-80
2024/01/14 15:01:57;;;;;;;21.80;4.63;;;;;;;;;;6085766;23;20457;-79
2024/01/14 15:04:32;;;;;;;11.90;4.05;;;;;;;;;;6085667;23;20029;-79
2024/01/14 15:06:59;;;;;;;18.77;4.63;;;;;;;;;;6086270;23;20408;-79
2024/01/14 15:09:26;;;;;;;16.73;3.67;;;;;;;;;;6089307;23;20041;-79
2024/01/14 15:12:00;;;;;;;20.73;4.10;;;;;;;;;;6088361;23;20034;-80
2024/01/14 15:14:27;;;;;;;22.33;5.18;;;;;;;;;;6087549;23;20026;-79